sensor_id;sensor_type;location;lat;lon;timestamp;P1;durP1;ratioP1;P2;durP2;ratioP2
72813;SDS011;60945;48.516;-2.768;2023-03-23T00:01:15;16.55;;;4.13;;
72813;SDS011;60945;48.516;-2.768;2023-03-23T00:03:46;21.23;;;4.20;;
72813;SDS011;60945;48.516;-2.768;2023-03-23T00:06:14;19.83;;;3.85;;
72813;SDS011;60945;48.516;-2.768;2023-03-23T00:08:47;17.90;;;3.85;;
72813;SDS011;60945;48.516;-2.768;2023-03-23T00:11:16;15.98;;;3.80;;
72813;SDS011;60945;48.516;-2.768;2023-03-23T00:13:47;15.85;;;3.33;;
72813;SDS011;60945;48.516;-2.768;2023-03-23T00:16:20;14.55;;;3.42;;
72813;SDS011;60945;48.516;-2.768;2023-03-23T00:18:54;14.93;;;3.72;;
72813;SDS011;60945;48.516;-2.768;2023-03-23T00:21:22;17.17;;;4.13;;
72813;SDS011;60945;48.516;-2.768;2023-03-23T00:23:59;13.75;;;3.50;;
72813;SDS011;60945;48.516;-2.768;2023-03-23T00:26:40;18.33;;;4.22;;
72813;SDS011;60945;48.516;-2.768;2023-03-23T00:29:18;20.55;;;3.70;;
72813;SDS011;60945;48.516;-2.768;2023-03-23T00:31:48;17.75;;;3.72;;
72813;SDS011;60945;48.516;-2.768;2023-03-23T00:34:15;15.07;;;3.50;;
72813;SDS011;60945;48.516;-2.768;2023-03-23T00:36:44;13.60;;;3.22;;
72813;SDS011;60945;48.516;-2.768;2023-03-23T00:39:15;16.58;;;3.80;;
72813;SDS011;60945;48.516;-2.768;2023-03-23T00:41:42;14.40;;;3.85;;
72813;SDS011;60945;48.516;-2.768;2023-03-23T00:44:09;17.25;;;4.72;;
72813;SDS011;60945;48.516;-2.768;2023-03-23T00:46:34;13.27;;;3.67;;
72813;SDS011;60945;48.516;-2.768;2023-03-23T00:49:09;17.38;;;3.92;;
72813;SDS011;60945;48.516;-2.768;2023-03-23T00:51:39;16.50;;;3.42;;
72813;SDS011;60945;48.516;-2.768;2023-03-23T00:54:06;20.35;;;4.43;;
72813;SDS011;60945;48.516;-2.768;2023-03-23T00:56:33;17.50;;;4.55;;
72813;SDS011;60945;48.516;-2.768;2023-03-23T00:58:59;16.35;;;3.88;;
72813;SDS011;60945;48.516;-2.768;2023-03-23T01:01:25;18.70;;;4.10;;
72813;SDS011;60945;48.516;-2.768;2023-03-23T01:03:51;13.10;;;3.60;;
72813;SDS011;60945;48.516;-2.768;2023-03-23T01:06:25;18.15;;;3.65;;
72813;SDS011;60945;48.516;-2.768;2023-03-23T01:08:53;15.25;;;3.22;;
72813;SDS011;60945;48.516;-2.768;2023-03-23T01:11:19;10.80;;;2.58;;
72813;SDS011;60945;48.516;-2.768;2023-03-23T01:13:45;6.60;;;1.88;;
72813;SDS011;60945;48.516;-2.768;2023-03-23T01:16:11;6.25;;;1.65;;
72813;SDS011;60945;48.516;-2.768;2023-03-23T01:18:37;7.05;;;1.63;;
72813;SDS011;60945;48.516;-2.768;2023-03-23T01:21:05;7.55;;;1.60;;
72813;SDS011;60945;48.516;-2.768;2023-03-23T01:23:41;8.05;;;1.73;;
72813;SDS011;60945;48.516;-2.768;2023-03-23T01:26:08;9.90;;;2.17;;
72813;SDS011;60945;48.516;-2.768;2023-03-23T01:28:36;9.90;;;2.47;;
72813;SDS011;60945;48.516;-2.768;2023-03-23T01:31:03;9.52;;;2.28;;
72813;SDS011;60945;48.516;-2.768;2023-03-23T01:33:33;8.40;;;2.03;;
72813;SDS011;60945;48.516;-2.768;2023-03-23T01:36:03;10.13;;;1.83;;
72813;SDS011;60945;48.516;-2.768;2023-03-23T01:38:35;9.02;;;1.55;;
72813;SDS011;60945;48.516;-2.768;2023-03-23T01:41:01;8.35;;;1.80;;
72813;SDS011;60945;48.516;-2.768;2023-03-23T01:43:27;5.70;;;1.27;;
72813;SDS011;60945;48.516;-2.768;2023-03-23T01:45:53;9.73;;;1.50;;
72813;SDS011;60945;48.516;-2.768;2023-03-23T01:53:22;6.85;;;1.60;;
72813;SDS011;60945;48.516;-2.768;2023-03-23T01:55:53;8.82;;;2.03;;
72813;SDS011;60945;48.516;-2.768;2023-03-23T01:58:23;10.75;;;2.58;;
72813;SDS011;60945;48.516;-2.768;2023-03-23T02:00:52;9.73;;;2.40;;
72813;SDS011;60945;48.516;-2.768;2023-03-23T02:03:20;9.00;;;1.88;;
72813;SDS011;60945;48.516;-2.768;2023-03-23T02:05:48;10.57;;;2.28;;
72813;SDS011;60945;48.516;-2.768;2023-03-23T02:08:15;8.05;;;2.85;;
72813;SDS011;60945;48.516;-2.768;2023-03-23T02:10:43;13.45;;;2.33;;
72813;SDS011;60945;48.516;-2.768;2023-03-23T02:13:09;10.05;;;1.88;;
72813;SDS011;60945;48.516;-2.768;2023-03-23T02:15:44;8.85;;;2.22;;
72813;SDS011;60945;48.516;-2.768;2023-03-23T02:18:14;9.80;;;2.40;;
72813;SDS011;60945;48.516;-2.768;2023-03-23T02:23:46;7.03;;;2.13;;
72813;SDS011;60945;48.516;-2.768;2023-03-23T02:36:01;12.60;;;2.17;;
72813;SDS011;60945;48.516;-2.768;2023-03-23T02:38:14;13.27;;;3.45;;
72813;SDS011;60945;48.516;-2.768;2023-03-23T02:40:56;9.52;;;3.15;;
72813;SDS011;60945;48.516;-2.768;2023-03-23T02:43:25;8.93;;;2.22;;
72813;SDS011;60945;48.516;-2.768;2023-03-23T02:45:53;9.45;;;2.30;;
72813;SDS011;60945;48.516;-2.768;2023-03-23T02:48:22;11.15;;;2.42;;
72813;SDS011;60945;48.516;-2.768;2023-03-23T02:50:52;9.93;;;2.30;;
72813;SDS011;60945;48.516;-2.768;2023-03-23T02:53:20;11.48;;;2.67;;
72813;SDS011;60945;48.516;-2.768;2023-03-23T02:55:48;16.05;;;2.78;;
72813;SDS011;60945;48.516;-2.768;2023-03-23T02:58:17;11.70;;;2.63;;
72813;SDS011;60945;48.516;-2.768;2023-03-23T03:00:43;12.38;;;3.00;;
72813;SDS011;60945;48.516;-2.768;2023-03-23T03:03:14;12.18;;;2.63;;
72813;SDS011;60945;48.516;-2.768;2023-03-23T03:11:11;8.00;;;2.45;;
72813;SDS011;60945;48.516;-2.768;2023-03-23T03:18:39;9.32;;;2.80;;
72813;SDS011;60945;48.516;-2.768;2023-03-23T03:21:22;13.65;;;2.88;;
72813;SDS011;60945;48.516;-2.768;2023-03-23T03:23:50;10.77;;;2.55;;
72813;SDS011;60945;48.516;-2.768;2023-03-23T03:26:19;14.43;;;2.72;;
72813;SDS011;60945;48.516;-2.768;2023-03-23T03:28:46;11.27;;;2.53;;
72813;SDS011;60945;48.516;-2.768;2023-03-23T03:31:15;16.90;;;3.10;;
72813;SDS011;60945;48.516;-2.768;2023-03-23T03:33:43;15.95;;;3.42;;
72813;SDS011;60945;48.516;-2.768;2023-03-23T03:36:14;16.40;;;3.28;;
72813;SDS011;60945;48.516;-2.768;2023-03-23T03:38:46;13.32;;;3.30;;
72813;SDS011;60945;48.516;-2.768;2023-03-23T03:41:15;14.20;;;3.10;;
72813;SDS011;60945;48.516;-2.768;2023-03-23T03:43:41;12.55;;;3.38;;
72813;SDS011;60945;48.516;-2.768;2023-03-23T03:46:07;12.73;;;3.05;;
72813;SDS011;60945;48.516;-2.768;2023-03-23T03:48:33;19.35;;;4.15;;
72813;SDS011;60945;48.516;-2.768;2023-03-23T03:50:59;15.05;;;3.58;;
72813;SDS011;60945;48.516;-2.768;2023-03-23T03:53:26;16.08;;;3.90;;
72813;SDS011;60945;48.516;-2.768;2023-03-23T03:55:52;20.90;;;4.65;;
72813;SDS011;60945;48.516;-2.768;2023-03-23T03:58:25;16.38;;;3.47;;
72813;SDS011;60945;48.516;-2.768;2023-03-23T04:00:56;17.85;;;3.97;;
72813;SDS011;60945;48.516;-2.768;2023-03-23T04:03:26;17.35;;;3.50;;
72813;SDS011;60945;48.516;-2.768;2023-03-23T04:05:53;13.68;;;3.72;;
72813;SDS011;60945;48.516;-2.768;2023-03-23T04:08:21;11.27;;;3.55;;
72813;SDS011;60945;48.516;-2.768;2023-03-23T04:10:47;11.98;;;3.35;;
72813;SDS011;60945;48.516;-2.768;2023-03-23T04:13:13;20.70;;;4.07;;
72813;SDS011;60945;48.516;-2.768;2023-03-23T04:15:39;18.60;;;3.35;;
72813;SDS011;60945;48.516;-2.768;2023-03-23T04:18:05;13.63;;;3.92;;
72813;SDS011;60945;48.516;-2.768;2023-03-23T04:20:31;14.38;;;3.78;;
72813;SDS011;60945;48.516;-2.768;2023-03-23T04:23:00;16.92;;;4.05;;
72813;SDS011;60945;48.516;-2.768;2023-03-23T04:25:28;18.17;;;4.28;;
72813;SDS011;60945;48.516;-2.768;2023-03-23T04:27:57;18.17;;;3.60;;
72813;SDS011;60945;48.516;-2.768;2023-03-23T04:30:26;18.85;;;3.78;;
72813;SDS011;60945;48.516;-2.768;2023-03-23T04:32:52;17.40;;;4.18;;
72813;SDS011;60945;48.516;-2.768;2023-03-23T04:35:20;14.48;;;3.53;;
72813;SDS011;60945;48.516;-2.768;2023-03-23T04:37:47;18.58;;;3.67;;
72813;SDS011;60945;48.516;-2.768;2023-03-23T04:40:14;17.20;;;3.53;;
72813;SDS011;60945;48.516;-2.768;2023-03-23T04:42:42;16.08;;;3.80;;
72813;SDS011;60945;48.516;-2.768;2023-03-23T04:45:15;16.95;;;3.75;;
72813;SDS011;60945;48.516;-2.768;2023-03-23T04:47:48;13.15;;;3.50;;
72813;SDS011;60945;48.516;-2.768;2023-03-23T04:50:23;12.32;;;3.35;;
72813;SDS011;60945;48.516;-2.768;2023-03-23T04:52:56;20.48;;;3.80;;
72813;SDS011;60945;48.516;-2.768;2023-03-23T04:55:24;16.05;;;3.58;;
72813;SDS011;60945;48.516;-2.768;2023-03-23T04:57:51;13.38;;;3.72;;
72813;SDS011;60945;48.516;-2.768;2023-03-23T05:00:17;16.15;;;4.20;;
72813;SDS011;60945;48.516;-2.768;2023-03-23T05:02:44;22.30;;;4.78;;
72813;SDS011;60945;48.516;-2.768;2023-03-23T05:05:11;17.25;;;3.80;;
72813;SDS011;60945;48.516;-2.768;2023-03-23T05:07:39;15.45;;;3.67;;
72813;SDS011;60945;48.516;-2.768;2023-03-23T05:10:07;17.35;;;4.10;;
72813;SDS011;60945;48.516;-2.768;2023-03-23T05:12:34;16.75;;;4.35;;
72813;SDS011;60945;48.516;-2.768;2023-03-23T05:14:59;23.30;;;4.75;;
72813;SDS011;60945;48.516;-2.768;2023-03-23T05:17:26;21.13;;;4.15;;
72813;SDS011;60945;48.516;-2.768;2023-03-23T05:19:51;19.23;;;4.05;;
72813;SDS011;60945;48.516;-2.768;2023-03-23T05:22:18;16.20;;;4.15;;
72813;SDS011;60945;48.516;-2.768;2023-03-23T05:24:46;19.02;;;4.57;;
72813;SDS011;60945;48.516;-2.768;2023-03-23T05:27:12;21.88;;;5.70;;
72813;SDS011;60945;48.516;-2.768;2023-03-23T05:29:40;24.67;;;4.05;;
72813;SDS011;60945;48.516;-2.768;2023-03-23T05:32:08;21.75;;;4.40;;
72813;SDS011;60945;48.516;-2.768;2023-03-23T05:34:35;21.13;;;4.25;;
72813;SDS011;60945;48.516;-2.768;2023-03-23T05:37:01;22.73;;;4.95;;
72813;SDS011;60945;48.516;-2.768;2023-03-23T05:39:28;15.90;;;4.40;;
72813;SDS011;60945;48.516;-2.768;2023-03-23T05:41:55;15.32;;;3.90;;
72813;SDS011;60945;48.516;-2.768;2023-03-23T05:44:20;15.10;;;3.50;;
72813;SDS011;60945;48.516;-2.768;2023-03-23T05:46:47;18.05;;;5.40;;
72813;SDS011;60945;48.516;-2.768;2023-03-23T05:49:13;18.23;;;4.68;;
72813;SDS011;60945;48.516;-2.768;2023-03-23T05:51:41;17.73;;;4.00;;
72813;SDS011;60945;48.516;-2.768;2023-03-23T05:54:11;21.30;;;4.28;;
72813;SDS011;60945;48.516;-2.768;2023-03-23T05:56:37;21.25;;;5.22;;
72813;SDS011;60945;48.516;-2.768;2023-03-23T05:59:03;23.67;;;4.65;;
72813;SDS011;60945;48.516;-2.768;2023-03-23T06:01:29;19.80;;;4.15;;
72813;SDS011;60945;48.516;-2.768;2023-03-23T06:03:56;19.60;;;4.72;;
72813;SDS011;60945;48.516;-2.768;2023-03-23T06:06:23;25.60;;;4.43;;
72813;SDS011;60945;48.516;-2.768;2023-03-23T06:08:49;21.88;;;4.97;;
72813;SDS011;60945;48.516;-2.768;2023-03-23T06:11:15;18.33;;;3.85;;
72813;SDS011;60945;48.516;-2.768;2023-03-23T06:13:42;15.80;;;3.75;;
72813;SDS011;60945;48.516;-2.768;2023-03-23T06:16:08;15.98;;;3.28;;
72813;SDS011;60945;48.516;-2.768;2023-03-23T06:18:34;16.33;;;4.32;;
72813;SDS011;60945;48.516;-2.768;2023-03-23T06:21:02;24.27;;;4.55;;
72813;SDS011;60945;48.516;-2.768;2023-03-23T06:23:28;22.10;;;5.68;;
72813;SDS011;60945;48.516;-2.768;2023-03-23T06:25:57;18.17;;;4.05;;
72813;SDS011;60945;48.516;-2.768;2023-03-23T06:28:25;15.50;;;3.65;;
72813;SDS011;60945;48.516;-2.768;2023-03-23T06:30:51;16.35;;;4.53;;
72813;SDS011;60945;48.516;-2.768;2023-03-23T06:33:18;14.82;;;3.75;;
72813;SDS011;60945;48.516;-2.768;2023-03-23T06:35:43;22.20;;;5.15;;
72813;SDS011;60945;48.516;-2.768;2023-03-23T06:38:09;17.42;;;4.25;;
72813;SDS011;60945;48.516;-2.768;2023-03-23T06:40:35;16.13;;;4.07;;
72813;SDS011;60945;48.516;-2.768;2023-03-23T06:43:01;17.05;;;3.80;;
72813;SDS011;60945;48.516;-2.768;2023-03-23T06:45:28;22.67;;;4.45;;
72813;SDS011;60945;48.516;-2.768;2023-03-23T06:47:55;18.05;;;3.92;;
72813;SDS011;60945;48.516;-2.768;2023-03-23T06:50:21;15.57;;;3.75;;
72813;SDS011;60945;48.516;-2.768;2023-03-23T06:52:48;18.45;;;4.05;;
72813;SDS011;60945;48.516;-2.768;2023-03-23T06:55:15;17.35;;;3.95;;
72813;SDS011;60945;48.516;-2.768;2023-03-23T06:57:42;19.52;;;5.03;;
72813;SDS011;60945;48.516;-2.768;2023-03-23T07:00:08;18.60;;;4.32;;
72813;SDS011;60945;48.516;-2.768;2023-03-23T07:02:37;14.57;;;3.60;;
72813;SDS011;60945;48.516;-2.768;2023-03-23T07:05:04;25.67;;;4.97;;
72813;SDS011;60945;48.516;-2.768;2023-03-23T07:07:30;22.02;;;4.75;;
72813;SDS011;60945;48.516;-2.768;2023-03-23T07:09:56;14.00;;;3.78;;
72813;SDS011;60945;48.516;-2.768;2023-03-23T07:12:23;21.48;;;3.38;;
72813;SDS011;60945;48.516;-2.768;2023-03-23T07:14:48;21.52;;;3.78;;
72813;SDS011;60945;48.516;-2.768;2023-03-23T07:17:14;24.63;;;4.60;;
72813;SDS011;60945;48.516;-2.768;2023-03-23T07:19:43;18.77;;;5.00;;
72813;SDS011;60945;48.516;-2.768;2023-03-23T07:22:09;17.77;;;3.92;;
72813;SDS011;60945;48.516;-2.768;2023-03-23T07:24:37;19.45;;;4.53;;
72813;SDS011;60945;48.516;-2.768;2023-03-23T07:27:03;23.65;;;3.83;;
72813;SDS011;60945;48.516;-2.768;2023-03-23T07:29:29;24.10;;;4.57;;
72813;SDS011;60945;48.516;-2.768;2023-03-23T07:31:54;16.67;;;3.75;;
72813;SDS011;60945;48.516;-2.768;2023-03-23T07:34:21;16.08;;;3.80;;
72813;SDS011;60945;48.516;-2.768;2023-03-23T07:36:47;18.13;;;4.15;;
72813;SDS011;60945;48.516;-2.768;2023-03-23T07:39:16;17.50;;;4.10;;
72813;SDS011;60945;48.516;-2.768;2023-03-23T07:41:41;16.98;;;3.60;;
72813;SDS011;60945;48.516;-2.768;2023-03-23T07:44:07;18.95;;;4.18;;
72813;SDS011;60945;48.516;-2.768;2023-03-23T07:46:33;17.27;;;4.45;;
72813;SDS011;60945;48.516;-2.768;2023-03-23T07:48:58;20.27;;;4.22;;
72813;SDS011;60945;48.516;-2.768;2023-03-23T07:51:29;21.63;;;5.25;;
72813;SDS011;60945;48.516;-2.768;2023-03-23T07:53:55;18.40;;;4.13;;
72813;SDS011;60945;48.516;-2.768;2023-03-23T07:56:21;21.88;;;4.72;;
72813;SDS011;60945;48.516;-2.768;2023-03-23T07:58:47;23.05;;;4.82;;
72813;SDS011;60945;48.516;-2.768;2023-03-23T08:01:14;18.67;;;4.25;;
72813;SDS011;60945;48.516;-2.768;2023-03-23T08:03:41;23.45;;;4.57;;
72813;SDS011;60945;48.516;-2.768;2023-03-23T08:06:07;21.67;;;5.00;;
72813;SDS011;60945;48.516;-2.768;2023-03-23T08:08:33;18.77;;;5.00;;
72813;SDS011;60945;48.516;-2.768;2023-03-23T08:10:59;25.85;;;4.53;;
72813;SDS011;60945;48.516;-2.768;2023-03-23T08:13:25;17.95;;;4.63;;
72813;SDS011;60945;48.516;-2.768;2023-03-23T08:15:51;14.55;;;4.35;;
72813;SDS011;60945;48.516;-2.768;2023-03-23T08:18:17;19.25;;;4.95;;
72813;SDS011;60945;48.516;-2.768;2023-03-23T08:20:46;15.07;;;4.35;;
72813;SDS011;60945;48.516;-2.768;2023-03-23T08:23:12;18.20;;;5.32;;
72813;SDS011;60945;48.516;-2.768;2023-03-23T08:25:39;19.75;;;4.60;;
72813;SDS011;60945;48.516;-2.768;2023-03-23T08:28:07;17.00;;;4.70;;
72813;SDS011;60945;48.516;-2.768;2023-03-23T08:30:34;20.83;;;4.63;;
72813;SDS011;60945;48.516;-2.768;2023-03-23T08:33:02;16.50;;;5.30;;
72813;SDS011;60945;48.516;-2.768;2023-03-23T08:35:30;16.83;;;4.25;;
72813;SDS011;60945;48.516;-2.768;2023-03-23T08:37:55;22.80;;;4.97;;
72813;SDS011;60945;48.516;-2.768;2023-03-23T08:40:22;21.88;;;4.70;;
72813;SDS011;60945;48.516;-2.768;2023-03-23T08:42:49;18.10;;;4.78;;
72813;SDS011;60945;48.516;-2.768;2023-03-23T08:45:20;16.17;;;3.90;;
72813;SDS011;60945;48.516;-2.768;2023-03-23T08:47:49;17.80;;;5.00;;
72813;SDS011;60945;48.516;-2.768;2023-03-23T08:50:18;14.35;;;4.18;;
72813;SDS011;60945;48.516;-2.768;2023-03-23T08:52:45;19.25;;;4.90;;
72813;SDS011;60945;48.516;-2.768;2023-03-23T08:55:12;17.83;;;4.70;;
72813;SDS011;60945;48.516;-2.768;2023-03-23T08:57:38;19.58;;;5.57;;
72813;SDS011;60945;48.516;-2.768;2023-03-23T09:00:06;15.63;;;4.32;;
72813;SDS011;60945;48.516;-2.768;2023-03-23T09:02:43;18.17;;;4.28;;
72813;SDS011;60945;48.516;-2.768;2023-03-23T09:05:10;18.10;;;4.80;;
72813;SDS011;60945;48.516;-2.768;2023-03-23T09:07:37;19.70;;;4.43;;
72813;SDS011;60945;48.516;-2.768;2023-03-23T09:10:04;17.27;;;4.55;;
72813;SDS011;60945;48.516;-2.768;2023-03-23T09:12:30;15.55;;;4.30;;
72813;SDS011;60945;48.516;-2.768;2023-03-23T09:15:00;18.45;;;4.30;;
72813;SDS011;60945;48.516;-2.768;2023-03-23T09:17:30;19.60;;;4.53;;
72813;SDS011;60945;48.516;-2.768;2023-03-23T09:19:56;15.35;;;4.15;;
72813;SDS011;60945;48.516;-2.768;2023-03-23T09:22:21;17.23;;;4.55;;
72813;SDS011;60945;48.516;-2.768;2023-03-23T09:24:49;16.77;;;4.47;;
72813;SDS011;60945;48.516;-2.768;2023-03-23T09:27:16;17.10;;;4.30;;
72813;SDS011;60945;48.516;-2.768;2023-03-23T09:29:42;17.80;;;4.35;;
72813;SDS011;60945;48.516;-2.768;2023-03-23T09:32:10;13.55;;;4.50;;
72813;SDS011;60945;48.516;-2.768;2023-03-23T09:34:38;11.98;;;4.13;;
72813;SDS011;60945;48.516;-2.768;2023-03-23T09:37:04;12.07;;;3.70;;
72813;SDS011;60945;48.516;-2.768;2023-03-23T09:39:31;14.93;;;4.47;;
72813;SDS011;60945;48.516;-2.768;2023-03-23T09:44:51;15.23;;;4.38;;
72813;SDS011;60945;48.516;-2.768;2023-03-23T09:52:37;16.73;;;4.50;;
72813;SDS011;60945;48.516;-2.768;2023-03-23T09:55:18;12.13;;;4.10;;
72813;SDS011;60945;48.516;-2.768;2023-03-23T10:03:34;10.75;;;3.85;;
72813;SDS011;60945;48.516;-2.768;2023-03-23T10:06:07;14.32;;;4.45;;
72813;SDS011;60945;48.516;-2.768;2023-03-23T10:08:35;12.20;;;4.60;;
72813;SDS011;60945;48.516;-2.768;2023-03-23T10:16:44;9.30;;;3.35;;
72813;SDS011;60945;48.516;-2.768;2023-03-23T10:19:17;11.35;;;3.60;;
72813;SDS011;60945;48.516;-2.768;2023-03-23T10:21:47;11.95;;;3.58;;
72813;SDS011;60945;48.516;-2.768;2023-03-23T10:24:21;11.70;;;3.78;;
72813;SDS011;60945;48.516;-2.768;2023-03-23T10:27:10;10.88;;;3.50;;
72813;SDS011;60945;48.516;-2.768;2023-03-23T10:29:46;8.02;;;2.38;;
72813;SDS011;60945;48.516;-2.768;2023-03-23T10:32:40;10.40;;;3.78;;
72813;SDS011;60945;48.516;-2.768;2023-03-23T10:35:21;10.07;;;3.45;;
72813;SDS011;60945;48.516;-2.768;2023-03-23T10:38:27;10.23;;;3.15;;
72813;SDS011;60945;48.516;-2.768;2023-03-23T10:41:23;9.63;;;2.70;;
72813;SDS011;60945;48.516;-2.768;2023-03-23T10:43:48;10.32;;;2.70;;
72813;SDS011;60945;48.516;-2.768;2023-03-23T10:49:00;9.15;;;3.25;;
72813;SDS011;60945;48.516;-2.768;2023-03-23T10:51:31;12.75;;;3.03;;
72813;SDS011;60945;48.516;-2.768;2023-03-23T10:54:02;11.52;;;2.65;;
72813;SDS011;60945;48.516;-2.768;2023-03-23T10:57:11;8.80;;;2.40;;
72813;SDS011;60945;48.516;-2.768;2023-03-23T10:59:29;8.52;;;2.70;;
72813;SDS011;60945;48.516;-2.768;2023-03-23T11:01:57;9.75;;;2.60;;
72813;SDS011;60945;48.516;-2.768;2023-03-23T11:04:28;8.30;;;1.95;;
72813;SDS011;60945;48.516;-2.768;2023-03-23T11:06:59;6.43;;;2.05;;
72813;SDS011;60945;48.516;-2.768;2023-03-23T11:09:39;10.18;;;2.85;;
72813;SDS011;60945;48.516;-2.768;2023-03-23T11:12:18;8.38;;;2.15;;
72813;SDS011;60945;48.516;-2.768;2023-03-23T11:14:45;7.95;;;2.38;;
72813;SDS011;60945;48.516;-2.768;2023-03-23T11:17:24;8.90;;;2.60;;
72813;SDS011;60945;48.516;-2.768;2023-03-23T11:19:51;5.28;;;1.77;;
72813;SDS011;60945;48.516;-2.768;2023-03-23T11:22:26;6.13;;;2.25;;
72813;SDS011;60945;48.516;-2.768;2023-03-23T11:24:59;6.75;;;1.85;;
72813;SDS011;60945;48.516;-2.768;2023-03-23T11:27:27;8.95;;;2.65;;
72813;SDS011;60945;48.516;-2.768;2023-03-23T11:29:54;9.15;;;2.80;;
72813;SDS011;60945;48.516;-2.768;2023-03-23T11:32:33;7.90;;;2.50;;
72813;SDS011;60945;48.516;-2.768;2023-03-23T11:35:03;9.70;;;2.88;;
72813;SDS011;60945;48.516;-2.768;2023-03-23T11:37:40;7.93;;;2.65;;
72813;SDS011;60945;48.516;-2.768;2023-03-23T11:50:56;10.63;;;2.53;;
72813;SDS011;60945;48.516;-2.768;2023-03-23T11:55:54;8.35;;;2.00;;
72813;SDS011;60945;48.516;-2.768;2023-03-23T11:58:37;4.45;;;1.80;;
72813;SDS011;60945;48.516;-2.768;2023-03-23T12:01:12;9.20;;;2.25;;
72813;SDS011;60945;48.516;-2.768;2023-03-23T12:28:17;12.82;;;3.03;;
72813;SDS011;60945;48.516;-2.768;2023-03-23T12:31:19;10.23;;;3.22;;
72813;SDS011;60945;48.516;-2.768;2023-03-23T12:45:21;14.07;;;4.35;;
72813;SDS011;60945;48.516;-2.768;2023-03-23T12:48:11;18.35;;;4.30;;
72813;SDS011;60945;48.516;-2.768;2023-03-23T12:53:23;15.63;;;3.90;;
72813;SDS011;60945;48.516;-2.768;2023-03-23T12:56:14;14.00;;;4.43;;
72813;SDS011;60945;48.516;-2.768;2023-03-23T12:59:13;14.35;;;4.07;;
72813;SDS011;60945;48.516;-2.768;2023-03-23T13:01:44;12.23;;;3.60;;
72813;SDS011;60945;48.516;-2.768;2023-03-23T13:06:53;10.93;;;3.33;;
72813;SDS011;60945;48.516;-2.768;2023-03-23T13:11:47;14.02;;;5.07;;
72813;SDS011;60945;48.516;-2.768;2023-03-23T13:14:18;8.10;;;2.90;;
72813;SDS011;60945;48.516;-2.768;2023-03-23T13:22:39;12.30;;;2.75;;
72813;SDS011;60945;48.516;-2.768;2023-03-23T13:27:59;9.80;;;2.83;;
72813;SDS011;60945;48.516;-2.768;2023-03-23T13:30:26;10.35;;;3.30;;
72813;SDS011;60945;48.516;-2.768;2023-03-23T13:33:00;13.02;;;3.42;;
72813;SDS011;60945;48.516;-2.768;2023-03-23T13:35:35;8.77;;;3.78;;
72813;SDS011;60945;48.516;-2.768;2023-03-23T13:38:12;9.75;;;3.05;;
72813;SDS011;60945;48.516;-2.768;2023-03-23T13:40:44;10.55;;;3.35;;
72813;SDS011;60945;48.516;-2.768;2023-03-23T13:43:10;8.30;;;3.25;;
72813;SDS011;60945;48.516;-2.768;2023-03-23T13:45:45;7.85;;;2.92;;
72813;SDS011;60945;48.516;-2.768;2023-03-23T13:50:48;10.35;;;3.50;;
72813;SDS011;60945;48.516;-2.768;2023-03-23T13:53:22;15.38;;;3.20;;
72813;SDS011;60945;48.516;-2.768;2023-03-23T13:58:25;13.00;;;3.63;;
72813;SDS011;60945;48.516;-2.768;2023-03-23T14:03:33;10.82;;;3.13;;
72813;SDS011;60945;48.516;-2.768;2023-03-23T14:06:06;9.68;;;3.17;;
72813;SDS011;60945;48.516;-2.768;2023-03-23T14:08:44;11.30;;;3.30;;
72813;SDS011;60945;48.516;-2.768;2023-03-23T14:13:47;12.13;;;3.17;;
72813;SDS011;60945;48.516;-2.768;2023-03-23T14:19:14;9.80;;;3.13;;
72813;SDS011;60945;48.516;-2.768;2023-03-23T14:22:05;8.75;;;3.10;;
72813;SDS011;60945;48.516;-2.768;2023-03-23T14:24:43;10.20;;;3.28;;
72813;SDS011;60945;48.516;-2.768;2023-03-23T14:27:11;9.85;;;3.33;;
72813;SDS011;60945;48.516;-2.768;2023-03-23T14:29:42;9.85;;;3.33;;
72813;SDS011;60945;48.516;-2.768;2023-03-23T14:32:11;8.93;;;2.92;;
72813;SDS011;60945;48.516;-2.768;2023-03-23T14:34:43;9.60;;;3.55;;
72813;SDS011;60945;48.516;-2.768;2023-03-23T14:37:12;8.70;;;3.05;;
72813;SDS011;60945;48.516;-2.768;2023-03-23T14:39:40;6.50;;;2.33;;
72813;SDS011;60945;48.516;-2.768;2023-03-23T14:42:11;7.13;;;2.08;;
72813;SDS011;60945;48.516;-2.768;2023-03-23T14:44:49;7.88;;;2.50;;
72813;SDS011;60945;48.516;-2.768;2023-03-23T14:47:20;10.07;;;2.90;;
72813;SDS011;60945;48.516;-2.768;2023-03-23T14:49:59;8.98;;;2.50;;
72813;SDS011;60945;48.516;-2.768;2023-03-23T14:52:29;8.38;;;2.50;;
72813;SDS011;60945;48.516;-2.768;2023-03-23T14:55:12;7.25;;;2.47;;
72813;SDS011;60945;48.516;-2.768;2023-03-23T14:57:42;8.82;;;2.72;;
72813;SDS011;60945;48.516;-2.768;2023-03-23T15:00:15;8.20;;;2.60;;
72813;SDS011;60945;48.516;-2.768;2023-03-23T15:02:53;8.73;;;2.13;;
72813;SDS011;60945;48.516;-2.768;2023-03-23T15:05:26;7.60;;;2.22;;
72813;SDS011;60945;48.516;-2.768;2023-03-23T15:07:57;6.57;;;2.53;;
72813;SDS011;60945;48.516;-2.768;2023-03-23T15:10:28;7.75;;;2.28;;
72813;SDS011;60945;48.516;-2.768;2023-03-23T15:12:54;7.25;;;2.35;;
72813;SDS011;60945;48.516;-2.768;2023-03-23T15:15:29;5.53;;;1.92;;
72813;SDS011;60945;48.516;-2.768;2023-03-23T15:17:57;6.75;;;1.83;;
72813;SDS011;60945;48.516;-2.768;2023-03-23T15:22:51;4.25;;;1.52;;
72813;SDS011;60945;48.516;-2.768;2023-03-23T15:25:19;4.63;;;1.30;;
72813;SDS011;60945;48.516;-2.768;2023-03-23T15:30:31;5.38;;;1.50;;
72813;SDS011;60945;48.516;-2.768;2023-03-23T15:33:01;5.43;;;1.70;;
72813;SDS011;60945;48.516;-2.768;2023-03-23T15:35:37;8.63;;;2.20;;
72813;SDS011;60945;48.516;-2.768;2023-03-23T15:38:12;6.03;;;1.73;;
72813;SDS011;60945;48.516;-2.768;2023-03-23T15:40:43;6.70;;;1.75;;
72813;SDS011;60945;48.516;-2.768;2023-03-23T15:43:21;7.50;;;1.67;;
72813;SDS011;60945;48.516;-2.768;2023-03-23T15:45:56;7.50;;;1.95;;
72813;SDS011;60945;48.516;-2.768;2023-03-23T15:48:32;8.85;;;2.40;;
72813;SDS011;60945;48.516;-2.768;2023-03-23T15:51:11;6.22;;;1.88;;
72813;SDS011;60945;48.516;-2.768;2023-03-23T15:53:38;7.45;;;2.22;;
72813;SDS011;60945;48.516;-2.768;2023-03-23T15:56:05;4.57;;;2.03;;
72813;SDS011;60945;48.516;-2.768;2023-03-23T15:58:33;8.23;;;2.42;;
72813;SDS011;60945;48.516;-2.768;2023-03-23T16:01:03;4.22;;;2.45;;
72813;SDS011;60945;48.516;-2.768;2023-03-23T16:06:22;8.73;;;2.00;;
72813;SDS011;60945;48.516;-2.768;2023-03-23T16:08:49;7.90;;;1.98;;
72813;SDS011;60945;48.516;-2.768;2023-03-23T16:11:16;5.15;;;1.45;;
72813;SDS011;60945;48.516;-2.768;2023-03-23T16:13:43;5.10;;;1.98;;
72813;SDS011;60945;48.516;-2.768;2023-03-23T16:16:32;7.30;;;2.13;;
72813;SDS011;60945;48.516;-2.768;2023-03-23T16:18:58;9.15;;;2.10;;
72813;SDS011;60945;48.516;-2.768;2023-03-23T16:21:24;6.50;;;2.72;;
72813;SDS011;60945;48.516;-2.768;2023-03-23T16:23:50;4.07;;;1.63;;
72813;SDS011;60945;48.516;-2.768;2023-03-23T16:26:15;6.28;;;1.88;;
72813;SDS011;60945;48.516;-2.768;2023-03-23T16:28:42;5.43;;;1.52;;
72813;SDS011;60945;48.516;-2.768;2023-03-23T16:31:08;4.70;;;1.40;;
72813;SDS011;60945;48.516;-2.768;2023-03-23T16:33:34;4.50;;;1.80;;
72813;SDS011;60945;48.516;-2.768;2023-03-23T16:36:03;7.03;;;1.80;;
72813;SDS011;60945;48.516;-2.768;2023-03-23T16:38:29;3.78;;;1.85;;
72813;SDS011;60945;48.516;-2.768;2023-03-23T16:40:55;4.97;;;2.00;;
72813;SDS011;60945;48.516;-2.768;2023-03-23T16:43:20;2.10;;;0.93;;
72813;SDS011;60945;48.516;-2.768;2023-03-23T16:45:46;2.72;;;1.20;;
72813;SDS011;60945;48.516;-2.768;2023-03-23T16:48:13;2.45;;;1.20;;
72813;SDS011;60945;48.516;-2.768;2023-03-23T16:50:41;3.25;;;1.25;;
72813;SDS011;60945;48.516;-2.768;2023-03-23T16:53:07;4.60;;;1.23;;
72813;SDS011;60945;48.516;-2.768;2023-03-23T16:55:34;2.75;;;0.85;;
72813;SDS011;60945;48.516;-2.768;2023-03-23T16:58:01;3.20;;;1.05;;